sensor_id;sensor_type;location;lat;lon;timestamp;P1;durP1;ratioP1;P2;durP2;ratioP2
9997;SDS011;5038;53.064;8.624;2023-05-02T00:01:29;29.37;;;26.57;;
9997;SDS011;5038;53.064;8.624;2023-05-02T00:03:59;27.80;;;25.20;;
9997;SDS011;5038;53.064;8.624;2023-05-02T00:06:27;30.70;;;27.67;;
9997;SDS011;5038;53.064;8.624;2023-05-02T00:08:57;29.87;;;27.17;;
9997;SDS011;5038;53.064;8.624;2023-05-02T00:11:25;30.00;;;27.10;;
9997;SDS011;5038;53.064;8.624;2023-05-02T00:13:53;29.77;;;26.87;;
9997;SDS011;5038;53.064;8.624;2023-05-02T00:16:21;29.83;;;26.83;;
9997;SDS011;5038;53.064;8.624;2023-05-02T00:18:49;30.97;;;27.77;;
9997;SDS011;5038;53.064;8.624;2023-05-02T00:21:19;29.23;;;26.33;;
9997;SDS011;5038;53.064;8.624;2023-05-02T00:23:47;29.40;;;26.40;;
9997;SDS011;5038;53.064;8.624;2023-05-02T00:26:17;27.80;;;24.90;;
9997;SDS011;5038;53.064;8.624;2023-05-02T00:28:45;27.47;;;24.70;;
9997;SDS011;5038;53.064;8.624;2023-05-02T00:31:13;27.60;;;24.90;;
9997;SDS011;5038;53.064;8.624;2023-05-02T00:33:42;27.17;;;24.37;;
9997;SDS011;5038;53.064;8.624;2023-05-02T00:36:13;25.23;;;22.73;;
9997;SDS011;5038;53.064;8.624;2023-05-02T00:38:44;25.53;;;22.90;;
9997;SDS011;5038;53.064;8.624;2023-05-02T00:41:12;25.73;;;23.03;;
9997;SDS011;5038;53.064;8.624;2023-05-02T00:43:40;26.73;;;24.10;;
9997;SDS011;5038;53.064;8.624;2023-05-02T00:46:08;26.20;;;23.40;;
9997;SDS011;5038;53.064;8.624;2023-05-02T00:48:38;25.33;;;23.03;;
9997;SDS011;5038;53.064;8.624;2023-05-02T00:51:06;25.43;;;22.73;;
9997;SDS011;5038;53.064;8.624;2023-05-02T00:53:37;24.13;;;21.73;;
9997;SDS011;5038;53.064;8.624;2023-05-02T00:56:07;22.93;;;20.63;;
9997;SDS011;5038;53.064;8.624;2023-05-02T00:58:36;25.40;;;22.80;;
9997;SDS011;5038;53.064;8.624;2023-05-02T01:01:12;25.53;;;23.03;;
9997;SDS011;5038;53.064;8.624;2023-05-02T01:03:54;23.07;;;20.73;;
9997;SDS011;5038;53.064;8.624;2023-05-02T01:06:38;20.67;;;18.57;;
9997;SDS011;5038;53.064;8.624;2023-05-02T01:09:18;21.23;;;19.03;;
9997;SDS011;5038;53.064;8.624;2023-05-02T01:11:59;21.27;;;19.07;;
9997;SDS011;5038;53.064;8.624;2023-05-02T01:14:30;20.37;;;18.27;;
9997;SDS011;5038;53.064;8.624;2023-05-02T01:17:02;19.67;;;17.60;;
9997;SDS011;5038;53.064;8.624;2023-05-02T01:19:34;20.03;;;17.97;;
9997;SDS011;5038;53.064;8.624;2023-05-02T01:22:06;19.03;;;17.03;;
9997;SDS011;5038;53.064;8.624;2023-05-02T01:24:39;19.63;;;17.63;;
9997;SDS011;5038;53.064;8.624;2023-05-02T01:27:23;19.20;;;16.43;;
9997;SDS011;5038;53.064;8.624;2023-05-02T01:30:02;20.43;;;17.67;;
9997;SDS011;5038;53.064;8.624;2023-05-02T01:32:33;22.20;;;19.77;;
9997;SDS011;5038;53.064;8.624;2023-05-02T01:35:06;21.27;;;17.87;;
9997;SDS011;5038;53.064;8.624;2023-05-02T01:37:37;22.53;;;18.03;;
9997;SDS011;5038;53.064;8.624;2023-05-02T01:40:07;18.73;;;16.83;;
9997;SDS011;5038;53.064;8.624;2023-05-02T01:42:37;20.80;;;18.47;;
9997;SDS011;5038;53.064;8.624;2023-05-02T01:45:09;19.90;;;17.30;;
9997;SDS011;5038;53.064;8.624;2023-05-02T01:47:39;22.00;;;18.37;;
9997;SDS011;5038;53.064;8.624;2023-05-02T01:50:10;22.93;;;18.90;;
9997;SDS011;5038;53.064;8.624;2023-05-02T01:52:42;22.43;;;18.50;;
9997;SDS011;5038;53.064;8.624;2023-05-02T01:55:12;20.13;;;17.47;;
9997;SDS011;5038;53.064;8.624;2023-05-02T01:57:43;20.00;;;16.10;;
9997;SDS011;5038;53.064;8.624;2023-05-02T02:00:14;20.90;;;15.80;;
9997;SDS011;5038;53.064;8.624;2023-05-02T02:02:44;14.87;;;13.03;;
9997;SDS011;5038;53.064;8.624;2023-05-02T02:05:15;14.40;;;12.07;;
9997;SDS011;5038;53.064;8.624;2023-05-02T02:07:45;10.60;;;8.67;;
9997;SDS011;5038;53.064;8.624;2023-05-02T02:10:13;7.70;;;6.60;;
9997;SDS011;5038;53.064;8.624;2023-05-02T02:12:42;5.90;;;5.30;;
9997;SDS011;5038;53.064;8.624;2023-05-02T02:15:18;5.20;;;4.33;;
9997;SDS011;5038;53.064;8.624;2023-05-02T02:17:54;5.60;;;4.60;;
9997;SDS011;5038;53.064;8.624;2023-05-02T02:20:26;5.23;;;3.40;;
9997;SDS011;5038;53.064;8.624;2023-05-02T02:22:57;4.83;;;3.10;;
9997;SDS011;5038;53.064;8.624;2023-05-02T02:25:28;4.93;;;2.80;;
9997;SDS011;5038;53.064;8.624;2023-05-02T02:27:56;4.53;;;2.30;;
9997;SDS011;5038;53.064;8.624;2023-05-02T02:30:27;5.00;;;2.77;;
9997;SDS011;5038;53.064;8.624;2023-05-02T02:32:55;5.00;;;2.97;;
9997;SDS011;5038;53.064;8.624;2023-05-02T02:35:24;6.13;;;3.13;;
9997;SDS011;5038;53.064;8.624;2023-05-02T02:38:13;5.27;;;3.30;;
9997;SDS011;5038;53.064;8.624;2023-05-02T02:40:58;5.83;;;3.63;;
9997;SDS011;5038;53.064;8.624;2023-05-02T02:43:35;6.53;;;3.90;;
9997;SDS011;5038;53.064;8.624;2023-05-02T02:46:13;9.80;;;4.40;;
9997;SDS011;5038;53.064;8.624;2023-05-02T02:48:54;8.30;;;4.20;;
9997;SDS011;5038;53.064;8.624;2023-05-02T02:51:29;11.17;;;5.00;;
9997;SDS011;5038;53.064;8.624;2023-05-02T02:54:05;9.17;;;4.90;;
9997;SDS011;5038;53.064;8.624;2023-05-02T02:56:54;10.50;;;5.10;;
9997;SDS011;5038;53.064;8.624;2023-05-02T02:59:30;11.80;;;5.00;;
9997;SDS011;5038;53.064;8.624;2023-05-02T03:02:02;12.40;;;5.70;;
9997;SDS011;5038;53.064;8.624;2023-05-02T03:04:35;7.60;;;4.57;;
9997;SDS011;5038;53.064;8.624;2023-05-02T03:07:05;9.97;;;5.23;;
9997;SDS011;5038;53.064;8.624;2023-05-02T03:09:40;11.50;;;5.87;;
9997;SDS011;5038;53.064;8.624;2023-05-02T03:12:13;12.60;;;5.60;;
9997;SDS011;5038;53.064;8.624;2023-05-02T03:14:42;11.80;;;5.90;;
9997;SDS011;5038;53.064;8.624;2023-05-02T03:17:12;15.63;;;6.40;;
9997;SDS011;5038;53.064;8.624;2023-05-02T03:19:40;14.77;;;6.60;;
9997;SDS011;5038;53.064;8.624;2023-05-02T03:22:09;15.13;;;7.00;;
9997;SDS011;5038;53.064;8.624;2023-05-02T03:24:37;12.90;;;6.40;;
9997;SDS011;5038;53.064;8.624;2023-05-02T03:27:06;15.93;;;6.27;;
9997;SDS011;5038;53.064;8.624;2023-05-02T03:29:39;19.70;;;6.50;;
9997;SDS011;5038;53.064;8.624;2023-05-02T03:32:09;15.60;;;7.53;;
9997;SDS011;5038;53.064;8.624;2023-05-02T03:34:41;15.33;;;7.43;;
9997;SDS011;5038;53.064;8.624;2023-05-02T03:37:10;18.97;;;7.50;;
9997;SDS011;5038;53.064;8.624;2023-05-02T03:39:38;16.10;;;7.53;;
9997;SDS011;5038;53.064;8.624;2023-05-02T03:42:06;16.90;;;7.17;;
9997;SDS011;5038;53.064;8.624;2023-05-02T03:44:34;17.17;;;6.63;;
9997;SDS011;5038;53.064;8.624;2023-05-02T03:47:02;20.50;;;9.00;;
9997;SDS011;5038;53.064;8.624;2023-05-02T03:49:35;17.37;;;7.00;;
9997;SDS011;5038;53.064;8.624;2023-05-02T03:52:06;17.80;;;7.70;;
9997;SDS011;5038;53.064;8.624;2023-05-02T03:54:36;19.97;;;7.67;;
9997;SDS011;5038;53.064;8.624;2023-05-02T03:57:04;21.93;;;8.77;;
9997;SDS011;5038;53.064;8.624;2023-05-02T03:59:34;17.10;;;7.47;;
9997;SDS011;5038;53.064;8.624;2023-05-02T04:02:11;13.90;;;6.60;;
9997;SDS011;5038;53.064;8.624;2023-05-02T04:04:44;18.40;;;8.17;;
9997;SDS011;5038;53.064;8.624;2023-05-02T04:07:17;20.43;;;7.77;;
9997;SDS011;5038;53.064;8.624;2023-05-02T04:09:56;20.23;;;8.10;;
9997;SDS011;5038;53.064;8.624;2023-05-02T04:12:25;22.87;;;8.30;;
9997;SDS011;5038;53.064;8.624;2023-05-02T04:14:54;20.53;;;7.67;;
9997;SDS011;5038;53.064;8.624;2023-05-02T04:17:26;18.90;;;8.87;;
9997;SDS011;5038;53.064;8.624;2023-05-02T04:19:55;18.23;;;7.60;;
9997;SDS011;5038;53.064;8.624;2023-05-02T04:22:27;15.60;;;7.00;;
9997;SDS011;5038;53.064;8.624;2023-05-02T04:24:59;17.07;;;7.30;;
9997;SDS011;5038;53.064;8.624;2023-05-02T04:27:29;19.50;;;7.23;;
9997;SDS011;5038;53.064;8.624;2023-05-02T04:29:58;15.33;;;6.60;;
9997;SDS011;5038;53.064;8.624;2023-05-02T04:32:26;16.57;;;7.27;;
9997;SDS011;5038;53.064;8.624;2023-05-02T04:34:56;18.57;;;7.83;;
9997;SDS011;5038;53.064;8.624;2023-05-02T04:37:24;16.90;;;7.03;;
9997;SDS011;5038;53.064;8.624;2023-05-02T04:39:54;14.10;;;6.23;;
9997;SDS011;5038;53.064;8.624;2023-05-02T04:42:25;16.10;;;7.30;;
9997;SDS011;5038;53.064;8.624;2023-05-02T04:45:04;15.30;;;6.30;;
9997;SDS011;5038;53.064;8.624;2023-05-02T04:47:34;17.17;;;5.90;;
9997;SDS011;5038;53.064;8.624;2023-05-02T04:50:02;11.70;;;6.33;;
9997;SDS011;5038;53.064;8.624;2023-05-02T04:52:30;14.87;;;6.40;;
9997;SDS011;5038;53.064;8.624;2023-05-02T04:55:00;15.23;;;6.63;;
9997;SDS011;5038;53.064;8.624;2023-05-02T04:57:28;12.83;;;6.40;;
9997;SDS011;5038;53.064;8.624;2023-05-02T04:59:58;20.73;;;6.80;;
9997;SDS011;5038;53.064;8.624;2023-05-02T05:02:27;15.70;;;6.27;;
9997;SDS011;5038;53.064;8.624;2023-05-02T05:04:56;14.83;;;6.90;;
9997;SDS011;5038;53.064;8.624;2023-05-02T05:07:27;14.53;;;6.40;;
9997;SDS011;5038;53.064;8.624;2023-05-02T05:09:56;16.37;;;6.57;;
9997;SDS011;5038;53.064;8.624;2023-05-02T05:12:30;12.97;;;5.90;;
9997;SDS011;5038;53.064;8.624;2023-05-02T05:14:58;12.50;;;6.50;;
9997;SDS011;5038;53.064;8.624;2023-05-02T05:17:27;15.27;;;6.30;;
9997;SDS011;5038;53.064;8.624;2023-05-02T05:19:56;13.37;;;5.37;;
9997;SDS011;5038;53.064;8.624;2023-05-02T05:22:25;15.67;;;6.80;;
9997;SDS011;5038;53.064;8.624;2023-05-02T05:24:54;14.17;;;5.93;;
9997;SDS011;5038;53.064;8.624;2023-05-02T05:27:27;18.13;;;6.33;;
9997;SDS011;5038;53.064;8.624;2023-05-02T05:29:57;14.23;;;6.30;;
9997;SDS011;5038;53.064;8.624;2023-05-02T05:32:25;15.60;;;6.20;;
9997;SDS011;5038;53.064;8.624;2023-05-02T05:34:54;17.33;;;6.10;;
9997;SDS011;5038;53.064;8.624;2023-05-02T05:37:25;13.67;;;5.73;;
9997;SDS011;5038;53.064;8.624;2023-05-02T05:39:55;10.53;;;5.13;;
9997;SDS011;5038;53.064;8.624;2023-05-02T05:42:23;14.80;;;6.20;;
9997;SDS011;5038;53.064;8.624;2023-05-02T05:44:57;12.87;;;5.90;;
9997;SDS011;5038;53.064;8.624;2023-05-02T05:47:26;15.13;;;5.93;;
9997;SDS011;5038;53.064;8.624;2023-05-02T05:49:54;13.07;;;5.20;;
9997;SDS011;5038;53.064;8.624;2023-05-02T05:52:27;13.57;;;5.67;;
9997;SDS011;5038;53.064;8.624;2023-05-02T05:54:58;11.10;;;4.77;;
9997;SDS011;5038;53.064;8.624;2023-05-02T05:57:27;7.97;;;4.13;;
9997;SDS011;5038;53.064;8.624;2023-05-02T05:59:57;13.70;;;4.63;;
9997;SDS011;5038;53.064;8.624;2023-05-02T06:02:26;13.43;;;5.50;;
9997;SDS011;5038;53.064;8.624;2023-05-02T06:04:55;12.80;;;5.47;;
9997;SDS011;5038;53.064;8.624;2023-05-02T06:07:24;18.97;;;6.07;;
9997;SDS011;5038;53.064;8.624;2023-05-02T06:09:52;12.03;;;5.00;;
9997;SDS011;5038;53.064;8.624;2023-05-02T06:12:21;15.03;;;5.73;;
9997;SDS011;5038;53.064;8.624;2023-05-02T06:14:49;11.20;;;5.10;;
9997;SDS011;5038;53.064;8.624;2023-05-02T06:17:19;10.33;;;4.87;;
9997;SDS011;5038;53.064;8.624;2023-05-02T06:19:48;10.90;;;4.87;;
9997;SDS011;5038;53.064;8.624;2023-05-02T06:22:16;14.67;;;5.50;;
9997;SDS011;5038;53.064;8.624;2023-05-02T06:24:44;8.30;;;4.80;;
9997;SDS011;5038;53.064;8.624;2023-05-02T06:27:12;14.50;;;5.50;;
9997;SDS011;5038;53.064;8.624;2023-05-02T06:29:40;13.53;;;4.73;;
9997;SDS011;5038;53.064;8.624;2023-05-02T06:32:08;13.70;;;4.77;;
9997;SDS011;5038;53.064;8.624;2023-05-02T06:34:38;10.93;;;5.20;;
9997;SDS011;5038;53.064;8.624;2023-05-02T06:37:06;18.63;;;5.50;;
9997;SDS011;5038;53.064;8.624;2023-05-02T06:39:34;12.70;;;5.40;;
9997;SDS011;5038;53.064;8.624;2023-05-02T06:42:02;9.20;;;4.57;;
9997;SDS011;5038;53.064;8.624;2023-05-02T06:44:32;8.83;;;4.93;;
9997;SDS011;5038;53.064;8.624;2023-05-02T06:47:00;10.80;;;4.83;;
9997;SDS011;5038;53.064;8.624;2023-05-02T06:49:30;8.93;;;4.80;;
9997;SDS011;5038;53.064;8.624;2023-05-02T06:51:59;11.70;;;4.90;;
9997;SDS011;5038;53.064;8.624;2023-05-02T06:54:28;10.87;;;4.50;;
9997;SDS011;5038;53.064;8.624;2023-05-02T06:56:56;10.33;;;5.20;;
9997;SDS011;5038;53.064;8.624;2023-05-02T06:59:24;9.47;;;4.27;;
9997;SDS011;5038;53.064;8.624;2023-05-02T07:01:52;12.23;;;4.90;;
9997;SDS011;5038;53.064;8.624;2023-05-02T07:04:20;12.90;;;5.03;;
9997;SDS011;5038;53.064;8.624;2023-05-02T07:06:48;12.73;;;4.40;;
9997;SDS011;5038;53.064;8.624;2023-05-02T07:09:18;10.00;;;5.13;;
9997;SDS011;5038;53.064;8.624;2023-05-02T07:11:46;8.43;;;3.97;;
9997;SDS011;5038;53.064;8.624;2023-05-02T07:14:14;9.67;;;4.40;;
9997;SDS011;5038;53.064;8.624;2023-05-02T07:16:42;11.43;;;4.50;;
9997;SDS011;5038;53.064;8.624;2023-05-02T07:19:10;8.90;;;4.17;;
9997;SDS011;5038;53.064;8.624;2023-05-02T07:21:38;9.47;;;4.50;;
9997;SDS011;5038;53.064;8.624;2023-05-02T07:24:07;10.47;;;4.97;;
9997;SDS011;5038;53.064;8.624;2023-05-02T07:26:36;9.13;;;3.87;;
9997;SDS011;5038;53.064;8.624;2023-05-02T07:29:04;11.23;;;5.10;;
9997;SDS011;5038;53.064;8.624;2023-05-02T07:31:34;14.03;;;5.00;;
9997;SDS011;5038;53.064;8.624;2023-05-02T07:34:02;12.27;;;5.60;;
9997;SDS011;5038;53.064;8.624;2023-05-02T07:36:30;9.63;;;4.87;;
9997;SDS011;5038;53.064;8.624;2023-05-02T07:38:58;10.50;;;4.87;;
9997;SDS011;5038;53.064;8.624;2023-05-02T07:41:26;10.17;;;4.70;;
9997;SDS011;5038;53.064;8.624;2023-05-02T07:43:56;12.00;;;5.10;;
9997;SDS011;5038;53.064;8.624;2023-05-02T07:46:24;11.70;;;4.50;;
9997;SDS011;5038;53.064;8.624;2023-05-02T07:48:52;11.07;;;5.10;;
9997;SDS011;5038;53.064;8.624;2023-05-02T07:51:20;10.50;;;4.93;;
9997;SDS011;5038;53.064;8.624;2023-05-02T07:53:49;10.83;;;4.87;;
9997;SDS011;5038;53.064;8.624;2023-05-02T07:56:18;11.53;;;4.27;;
9997;SDS011;5038;53.064;8.624;2023-05-02T07:58:46;12.97;;;4.40;;
9997;SDS011;5038;53.064;8.624;2023-05-02T08:01:17;15.80;;;5.60;;
9997;SDS011;5038;53.064;8.624;2023-05-02T08:03:45;10.40;;;5.40;;
9997;SDS011;5038;53.064;8.624;2023-05-02T08:06:15;10.80;;;4.60;;
9997;SDS011;5038;53.064;8.624;2023-05-02T08:08:43;17.17;;;5.40;;
9997;SDS011;5038;53.064;8.624;2023-05-02T08:11:11;10.20;;;4.40;;
9997;SDS011;5038;53.064;8.624;2023-05-02T08:13:39;13.30;;;4.80;;
9997;SDS011;5038;53.064;8.624;2023-05-02T08:16:07;9.20;;;4.53;;
9997;SDS011;5038;53.064;8.624;2023-05-02T08:18:37;9.33;;;4.50;;
9997;SDS011;5038;53.064;8.624;2023-05-02T08:21:06;9.97;;;5.10;;
9997;SDS011;5038;53.064;8.624;2023-05-02T08:23:34;8.20;;;4.50;;
9997;SDS011;5038;53.064;8.624;2023-05-02T08:26:03;10.23;;;4.27;;
9997;SDS011;5038;53.064;8.624;2023-05-02T08:28:33;8.73;;;3.80;;
9997;SDS011;5038;53.064;8.624;2023-05-02T08:31:01;11.90;;;4.23;;
9997;SDS011;5038;53.064;8.624;2023-05-02T08:33:30;9.47;;;3.83;;
9997;SDS011;5038;53.064;8.624;2023-05-02T08:35:59;7.50;;;3.40;;
9997;SDS011;5038;53.064;8.624;2023-05-02T08:38:27;7.20;;;3.63;;
9997;SDS011;5038;53.064;8.624;2023-05-02T08:40:55;7.20;;;4.17;;
9997;SDS011;5038;53.064;8.624;2023-05-02T08:43:23;9.83;;;4.20;;
9997;SDS011;5038;53.064;8.624;2023-05-02T08:45:52;8.87;;;4.37;;
9997;SDS011;5038;53.064;8.624;2023-05-02T08:48:24;9.90;;;4.30;;
9997;SDS011;5038;53.064;8.624;2023-05-02T08:50:53;11.73;;;4.00;;
9997;SDS011;5038;53.064;8.624;2023-05-02T08:53:23;12.37;;;4.73;;
9997;SDS011;5038;53.064;8.624;2023-05-02T08:55:52;8.60;;;3.77;;
9997;SDS011;5038;53.064;8.624;2023-05-02T08:58:21;7.30;;;3.63;;
9997;SDS011;5038;53.064;8.624;2023-05-02T09:00:49;7.40;;;3.50;;
9997;SDS011;5038;53.064;8.624;2023-05-02T09:03:20;7.60;;;3.37;;
9997;SDS011;5038;53.064;8.624;2023-05-02T09:05:57;8.67;;;4.00;;
9997;SDS011;5038;53.064;8.624;2023-05-02T09:08:35;7.27;;;3.23;;
9997;SDS011;5038;53.064;8.624;2023-05-02T09:11:03;6.70;;;3.27;;
9997;SDS011;5038;53.064;8.624;2023-05-02T09:13:33;8.90;;;3.67;;
9997;SDS011;5038;53.064;8.624;2023-05-02T09:16:03;5.20;;;3.20;;
9997;SDS011;5038;53.064;8.624;2023-05-02T09:18:33;7.37;;;3.10;;
9997;SDS011;5038;53.064;8.624;2023-05-02T09:21:04;5.70;;;2.97;;
9997;SDS011;5038;53.064;8.624;2023-05-02T09:23:36;6.73;;;3.10;;
9997;SDS011;5038;53.064;8.624;2023-05-02T09:26:13;8.10;;;2.90;;
9997;SDS011;5038;53.064;8.624;2023-05-02T09:28:43;8.40;;;3.23;;
9997;SDS011;5038;53.064;8.624;2023-05-02T09:31:13;6.20;;;2.70;;
9997;SDS011;5038;53.064;8.624;2023-05-02T09:33:52;9.37;;;3.10;;
9997;SDS011;5038;53.064;8.624;2023-05-02T09:36:21;6.70;;;2.37;;
9997;SDS011;5038;53.064;8.624;2023-05-02T09:38:51;8.87;;;2.70;;
9997;SDS011;5038;53.064;8.624;2023-05-02T09:41:39;3.90;;;2.37;;
9997;SDS011;5038;53.064;8.624;2023-05-02T09:44:08;8.53;;;2.90;;
9997;SDS011;5038;53.064;8.624;2023-05-02T09:46:41;6.73;;;2.80;;
9997;SDS011;5038;53.064;8.624;2023-05-02T09:49:09;6.60;;;2.97;;
9997;SDS011;5038;53.064;8.624;2023-05-02T09:51:38;6.20;;;2.10;;
9997;SDS011;5038;53.064;8.624;2023-05-02T09:54:07;6.47;;;2.90;;
9997;SDS011;5038;53.064;8.624;2023-05-02T09:56:50;8.10;;;2.70;;
9997;SDS011;5038;53.064;8.624;2023-05-02T09:59:19;5.87;;;2.57;;
9997;SDS011;5038;53.064;8.624;2023-05-02T10:01:53;5.97;;;2.50;;
9997;SDS011;5038;53.064;8.624;2023-05-02T10:04:22;5.67;;;2.80;;
9997;SDS011;5038;53.064;8.624;2023-05-02T10:06:51;5.37;;;2.60;;
9997;SDS011;5038;53.064;8.624;2023-05-02T10:09:22;5.50;;;2.47;;
9997;SDS011;5038;53.064;8.624;2023-05-02T10:11:50;4.90;;;2.00;;
9997;SDS011;5038;53.064;8.624;2023-05-02T10:14:20;4.27;;;2.30;;
9997;SDS011;5038;53.064;8.624;2023-05-02T10:16:57;4.77;;;2.07;;
9997;SDS011;5038;53.064;8.624;2023-05-02T10:19:28;5.30;;;2.57;;
9997;SDS011;5038;53.064;8.624;2023-05-02T10:22:00;5.03;;;1.87;;
9997;SDS011;5038;53.064;8.624;2023-05-02T10:24:31;4.63;;;1.90;;
9997;SDS011;5038;53.064;8.624;2023-05-02T10:27:00;4.50;;;1.90;;
9997;SDS011;5038;53.064;8.624;2023-05-02T10:29:30;4.00;;;1.93;;
9997;SDS011;5038;53.064;8.624;2023-05-02T10:32:00;4.57;;;1.93;;
9997;SDS011;5038;53.064;8.624;2023-05-02T10:34:31;4.27;;;2.03;;
9997;SDS011;5038;53.064;8.624;2023-05-02T10:36:59;3.77;;;1.90;;
9997;SDS011;5038;53.064;8.624;2023-05-02T10:39:28;5.60;;;2.23;;
9997;SDS011;5038;53.064;8.624;2023-05-02T10:41:58;4.63;;;2.10;;
9997;SDS011;5038;53.064;8.624;2023-05-02T10:44:31;6.50;;;2.50;;
9997;SDS011;5038;53.064;8.624;2023-05-02T10:47:00;5.70;;;2.10;;
9997;SDS011;5038;53.064;8.624;2023-05-02T10:49:50;6.30;;;2.77;;
9997;SDS011;5038;53.064;8.624;2023-05-02T10:52:25;6.43;;;2.67;;
9997;SDS011;5038;53.064;8.624;2023-05-02T10:55:14;6.00;;;2.67;;
9997;SDS011;5038;53.064;8.624;2023-05-02T11:00:48;6.07;;;2.40;;
9997;SDS011;5038;53.064;8.624;2023-05-02T11:06:17;5.80;;;2.30;;
9997;SDS011;5038;53.064;8.624;2023-05-02T11:08:46;8.13;;;2.40;;
9997;SDS011;5038;53.064;8.624;2023-05-02T11:14:10;6.13;;;2.33;;
9997;SDS011;5038;53.064;8.624;2023-05-02T11:17:09;5.30;;;2.10;;
9997;SDS011;5038;53.064;8.624;2023-05-02T11:22:57;6.27;;;2.27;;
9997;SDS011;5038;53.064;8.624;2023-05-02T11:25:47;7.40;;;2.47;;
9997;SDS011;5038;53.064;8.624;2023-05-02T11:31:07;6.37;;;2.70;;
9997;SDS011;5038;53.064;8.624;2023-05-02T11:33:37;5.57;;;2.23;;
9997;SDS011;5038;53.064;8.624;2023-05-02T11:36:05;8.60;;;3.50;;
9997;SDS011;5038;53.064;8.624;2023-05-02T11:38:34;8.63;;;3.00;;
9997;SDS011;5038;53.064;8.624;2023-05-02T11:41:04;4.87;;;2.30;;
9997;SDS011;5038;53.064;8.624;2023-05-02T11:43:32;4.70;;;2.23;;
9997;SDS011;5038;53.064;8.624;2023-05-02T11:46:00;5.23;;;2.63;;
9997;SDS011;5038;53.064;8.624;2023-05-02T11:48:30;7.43;;;2.37;;
9997;SDS011;5038;53.064;8.624;2023-05-02T11:51:00;7.07;;;2.43;;
9997;SDS011;5038;53.064;8.624;2023-05-02T11:53:32;4.90;;;2.17;;
9997;SDS011;5038;53.064;8.624;2023-05-02T11:56:06;5.73;;;2.00;;
9997;SDS011;5038;53.064;8.624;2023-05-02T11:58:35;6.33;;;2.60;;
9997;SDS011;5038;53.064;8.624;2023-05-02T12:01:10;4.07;;;2.23;;
9997;SDS011;5038;53.064;8.624;2023-05-02T12:03:39;6.43;;;2.40;;
9997;SDS011;5038;53.064;8.624;2023-05-02T12:06:09;5.80;;;2.77;;
9997;SDS011;5038;53.064;8.624;2023-05-02T12:08:39;4.77;;;2.00;;
9997;SDS011;5038;53.064;8.624;2023-05-02T12:11:08;5.00;;;2.30;;
9997;SDS011;5038;53.064;8.624;2023-05-02T12:13:43;7.13;;;2.53;;
9997;SDS011;5038;53.064;8.624;2023-05-02T12:16:13;6.83;;;2.50;;
9997;SDS011;5038;53.064;8.624;2023-05-02T12:18:42;4.50;;;2.60;;
9997;SDS011;5038;53.064;8.624;2023-05-02T12:21:11;4.90;;;2.40;;
9997;SDS011;5038;53.064;8.624;2023-05-02T12:23:40;7.50;;;2.80;;
9997;SDS011;5038;53.064;8.624;2023-05-02T12:26:17;5.20;;;2.37;;
9997;SDS011;5038;53.064;8.624;2023-05-02T12:28:47;7.43;;;2.53;;
9997;SDS011;5038;53.064;8.624;2023-05-02T12:31:16;5.63;;;2.40;;
9997;SDS011;5038;53.064;8.624;2023-05-02T12:33:45;5.90;;;2.60;;
9997;SDS011;5038;53.064;8.624;2023-05-02T12:36:16;6.80;;;2.07;;
9997;SDS011;5038;53.064;8.624;2023-05-02T12:38:48;7.87;;;2.13;;
9997;SDS011;5038;53.064;8.624;2023-05-02T12:41:27;5.43;;;2.10;;
9997;SDS011;5038;53.064;8.624;2023-05-02T12:43:58;4.70;;;1.90;;
9997;SDS011;5038;53.064;8.624;2023-05-02T12:46:27;5.80;;;2.20;;
9997;SDS011;5038;53.064;8.624;2023-05-02T12:49:01;4.37;;;1.77;;
9997;SDS011;5038;53.064;8.624;2023-05-02T12:51:32;3.90;;;1.70;;
9997;SDS011;5038;53.064;8.624;2023-05-02T12:54:00;5.43;;;2.50;;
9997;SDS011;5038;53.064;8.624;2023-05-02T12:56:29;4.50;;;1.57;;
9997;SDS011;5038;53.064;8.624;2023-05-02T12:59:04;4.33;;;1.60;;
9997;SDS011;5038;53.064;8.624;2023-05-02T13:01:33;5.00;;;1.30;;
9997;SDS011;5038;53.064;8.624;2023-05-02T13:04:01;5.83;;;1.97;;
9997;SDS011;5038;53.064;8.624;2023-05-02T13:06:31;3.97;;;1.30;;
9997;SDS011;5038;53.064;8.624;2023-05-02T13:09:03;3.80;;;1.60;;
9997;SDS011;5038;53.064;8.624;2023-05-02T13:11:31;6.20;;;2.30;;
9997;SDS011;5038;53.064;8.624;2023-05-02T13:13:59;6.10;;;1.83;;
9997;SDS011;5038;53.064;8.624;2023-05-02T13:16:30;3.30;;;1.47;;
9997;SDS011;5038;53.064;8.624;2023-05-02T13:19:00;4.50;;;1.70;;
9997;SDS011;5038;53.064;8.624;2023-05-02T13:21:28;4.30;;;1.80;;
9997;SDS011;5038;53.064;8.624;2023-05-02T13:23:58;5.07;;;1.80;;
9997;SDS011;5038;53.064;8.624;2023-05-02T13:26:26;5.03;;;1.87;;
9997;SDS011;5038;53.064;8.624;2023-05-02T13:28:54;5.30;;;2.23;;
9997;SDS011;5038;53.064;8.624;2023-05-02T13:31:22;4.73;;;2.00;;
9997;SDS011;5038;53.064;8.624;2023-05-02T13:33:51;5.80;;;2.13;;
9997;SDS011;5038;53.064;8.624;2023-05-02T13:36:19;6.67;;;2.53;;
9997;SDS011;5038;53.064;8.624;2023-05-02T13:38:47;4.00;;;2.10;;
9997;SDS011;5038;53.064;8.624;2023-05-02T13:41:16;5.87;;;2.30;;
9997;SDS011;5038;53.064;8.624;2023-05-02T13:43:45;7.13;;;2.07;;
9997;SDS011;5038;53.064;8.624;2023-05-02T13:46:13;7.33;;;2.20;;
9997;SDS011;5038;53.064;8.624;2023-05-02T13:48:41;6.30;;;2.70;;
9997;SDS011;5038;53.064;8.624;2023-05-02T13:51:09;4.87;;;1.63;;
9997;SDS011;5038;53.064;8.624;2023-05-02T13:53:38;6.03;;;2.10;;
9997;SDS011;5038;53.064;8.624;2023-05-02T13:56:06;4.30;;;1.30;;
9997;SDS011;5038;53.064;8.624;2023-05-02T13:58:35;4.83;;;1.53;;
9997;SDS011;5038;53.064;8.624;2023-05-02T14:01:03;4.80;;;1.60;;
9997;SDS011;5038;53.064;8.624;2023-05-02T14:03:32;5.20;;;1.77;;
9997;SDS011;5038;53.064;8.624;2023-05-02T14:06:00;5.37;;;2.07;;
9997;SDS011;5038;53.064;8.624;2023-05-02T14:08:28;5.30;;;1.90;;
9997;SDS011;5038;53.064;8.624;2023-05-02T14:10:56;6.13;;;2.03;;
9997;SDS011;5038;53.064;8.624;2023-05-02T14:13:24;6.33;;;2.07;;
9997;SDS011;5038;53.064;8.624;2023-05-02T14:15:54;4.53;;;1.70;;
9997;SDS011;5038;53.064;8.624;2023-05-02T14:18:24;7.00;;;2.67;;
9997;SDS011;5038;53.064;8.624;2023-05-02T14:20:52;5.73;;;1.80;;
9997;SDS011;5038;53.064;8.624;2023-05-02T14:23:20;4.43;;;1.83;;
9997;SDS011;5038;53.064;8.624;2023-05-02T14:25:48;6.73;;;2.30;;
9997;SDS011;5038;53.064;8.624;2023-05-02T14:28:16;4.50;;;1.43;;
9997;SDS011;5038;53.064;8.624;2023-05-02T14:30:46;4.93;;;1.40;;
9997;SDS011;5038;53.064;8.624;2023-05-02T14:33:16;6.00;;;1.60;;
9997;SDS011;5038;53.064;8.624;2023-05-02T14:35:44;6.20;;;1.53;;
9997;SDS011;5038;53.064;8.624;2023-05-02T14:38:12;6.70;;;2.30;;
9997;SDS011;5038;53.064;8.624;2023-05-02T14:40:40;5.60;;;1.83;;
9997;SDS011;5038;53.064;8.624;2023-05-02T14:43:08;4.43;;;1.27;;
9997;SDS011;5038;53.064;8.624;2023-05-02T14:45:38;8.13;;;1.90;;
9997;SDS011;5038;53.064;8.624;2023-05-02T14:48:06;4.43;;;1.53;;
9997;SDS011;5038;53.064;8.624;2023-05-02T14:50:37;4.27;;;1.50;;
9997;SDS011;5038;53.064;8.624;2023-05-02T14:53:05;5.47;;;1.77;;
9997;SDS011;5038;53.064;8.624;2023-05-02T14:55:36;5.10;;;1.70;;
9997;SDS011;5038;53.064;8.624;2023-05-02T14:58:05;6.00;;;1.50;;
9997;SDS011;5038;53.064;8.624;2023-05-02T15:00:34;5.07;;;1.60;;
9997;SDS011;5038;53.064;8.624;2023-05-02T15:03:03;3.80;;;1.73;;
9997;SDS011;5038;53.064;8.624;2023-05-02T15:05:33;4.87;;;1.50;;
9997;SDS011;5038;53.064;8.624;2023-05-02T15:08:04;5.83;;;1.70;;
9997;SDS011;5038;53.064;8.624;2023-05-02T15:10:35;4.30;;;1.60;;
9997;SDS011;5038;53.064;8.624;2023-05-02T15:13:03;5.30;;;2.23;;
9997;SDS011;5038;53.064;8.624;2023-05-02T15:15:32;5.67;;;1.80;;
9997;SDS011;5038;53.064;8.624;2023-05-02T15:18:00;5.47;;;1.80;;
9997;SDS011;5038;53.064;8.624;2023-05-02T15:20:29;4.90;;;1.40;;
9997;SDS011;5038;53.064;8.624;2023-05-02T15:22:57;4.37;;;1.50;;
9997;SDS011;5038;53.064;8.624;2023-05-02T15:25:30;5.57;;;1.70;;
9997;SDS011;5038;53.064;8.624;2023-05-02T15:27:58;4.17;;;1.73;;
9997;SDS011;5038;53.064;8.624;2023-05-02T15:30:27;6.43;;;1.93;;
9997;SDS011;5038;53.064;8.624;2023-05-02T15:32:55;6.63;;;1.70;;
9997;SDS011;5038;53.064;8.624;2023-05-02T15:35:23;5.83;;;1.60;;
9997;SDS011;5038;53.064;8.624;2023-05-02T15:37:51;5.87;;;1.80;;
9997;SDS011;5038;53.064;8.624;2023-05-02T15:40:19;5.60;;;1.83;;
9997;SDS011;5038;53.064;8.624;2023-05-02T15:42:49;5.53;;;2.20;;